Naponee, Nebraska
Current Conditions -  °F | °C
As of 7:15 PM on Monday 20 Oct 2014 (Local Time) from KHDE Reporting Station
Haze Haze  
Wind Chill: 62°   Ceiling: Unl
Heat Index: 62°   Visibility: 5mi
Dew Point: 40°   Wind: 0mph
Humidity: 45%   Direction: NA
Pressure: 30.06"   Gusts: NA
Location:  40.08°N, 99.14°W
Report Text: KHDE 210015Z AUTO 00000KT 5SM HZ CLR 17/05 A3006 RMK AO2 T01650045
Loading
Personal Weather Stations






























Interactive Weather Map
Tropical Storm Tracking
New forecast layout! Learn more

10-Day Weather Forecast

Advertisements
Track Severe Weather on mobile